CYZS

Coral Harbour Airport

Coral Harbour, Canada
METAR CYZS 140000Z 14014G19KT 3SM -SN BR DRSN FEW002 OVC007 M07/M08 A2951 RMK ST2SC6 SLP000
Observed Flight Rules
Dec-14 @ 00:00 UTC (45 minutes ago) Instrument Flight Rules
Wind Visibility Clouds Conditions
140° at 14 knots
 Gusting to 19 knots
3 miles
  • Few at 200' AGL
  • Overcast at 700' AGL
  • Light Snow
  • Mist
  • Low drifting
  • Snow
Temperatures Readings
Current -7°C / 19°F
Dewpoint -8°C / 18°F
Humidity 93%
Altimeter 29.51" Hg
Pressure 1000 hPa
Elevation 64
METAR CYZS 140000Z 14014G19KT 3SM -SN BR DRSN FEW002 OVC007 M07/M08 A2951 RMK ST2SC6 SLP000
Observed Flight Rules
Dec-14 @ 00:00 UTC
(45 minutes ago)
IFR
Wind Visibility
140° at 14 knots
 Gusting to 19 knots
3 miles
Clouds
  • Few at 200' AGL
  • Overcast at 700' AGL
Conditions
  • Light Snow
  • Mist
  • Low drifting
  • Snow
Temperature Dewpoint
-7°C / 19°F -8°C / 18°F
Humidity Altimeter Pressure
93% 29.51" Hg 1000 hPa